Time;durP1;ratioP1;P1;durP2;ratioP2;P2;SDS_P1;SDS_P2;PMS_P1;PMS_P2;Temp;Humidity;BMP_temperature;BMP_pressure;BME280_temperature;BME280_humidity;BME280_pressure;Samples;Min_cycle;Max_cycle;Signal;HPM_P1;HPM_P2
2022/12/07 00:01:30;;;;;;;7.00;4.63;;;5.50;99.90;;;;;;5035447;28;20690;-57
2022/12/07 00:04:04;;;;;;;6.47;5.30;;;5.30;99.90;;;;;;5035926;28;20199;-56
2022/12/07 00:06:36;;;;;;;6.00;4.90;;;5.40;99.90;;;;;;5037749;28;20962;-56
2022/12/07 00:09:05;;;;;;;7.23;4.67;;;5.20;99.90;;;;;;5038015;28;20211;-57
2022/12/07 00:11:32;;;;;;;6.30;5.13;;;5.00;99.90;;;;;;5038475;28;20328;-57
2022/12/07 00:14:02;;;;;;;7.77;5.30;;;4.90;99.90;;;;;;5038435;28;20223;-56
2022/12/07 00:16:31;;;;;;;8.73;5.27;;;4.90;99.90;;;;;;5020648;28;20740;-56
2022/12/07 00:18:58;;;;;;;8.73;6.17;;;4.90;99.90;;;;;;5038636;28;20202;-56
2022/12/07 00:21:28;;;;;;;6.60;5.10;;;5.10;99.90;;;;;;5038846;28;20673;-56
2022/12/07 00:23:56;;;;;;;7.20;4.73;;;5.20;99.90;;;;;;5041025;28;20235;-56
2022/12/07 00:26:30;;;;;;;8.60;5.33;;;5.20;99.90;;;;;;5034830;28;20217;-56
2022/12/07 00:29:01;;;;;;;7.30;5.30;;;5.20;99.90;;;;;;5029911;28;20297;-56
2022/12/07 00:31:31;;;;;;;6.70;4.33;;;5.10;99.90;;;;;;5043121;28;20304;-56
2022/12/07 00:33:58;;;;;;;6.57;4.63;;;5.20;99.90;;;;;;5052291;28;20212;-56
2022/12/07 00:36:25;;;;;;;6.37;4.13;;;5.30;99.90;;;;;;5066094;28;20188;-57
2022/12/07 00:38:54;;;;;;;8.07;4.83;;;5.40;99.90;;;;;;5058541;28;20226;-56
2022/12/07 00:41:24;;;;;;;6.80;4.60;;;5.40;99.90;;;;;;5058896;28;20192;-56
2022/12/07 00:43:51;;;;;;;11.43;4.60;;;5.40;99.90;;;;;;5061905;28;20208;-57
2022/12/07 00:46:20;;;;;;;5.30;4.20;;;5.40;99.90;;;;;;5059507;28;20303;-56
2022/12/07 00:48:48;;;;;;;7.07;4.00;;;5.40;99.90;;;;;;5060302;28;20215;-56
2022/12/07 00:51:17;;;;;;;5.43;4.17;;;5.20;99.90;;;;;;5058675;28;20530;-56
2022/12/07 00:53:44;;;;;;;6.67;4.37;;;5.20;99.90;;;;;;5059937;28;20219;-56
2022/12/07 00:56:13;;;;;;;5.77;4.50;;;5.00;99.90;;;;;;5057347;28;20294;-56
2022/12/07 00:58:40;;;;;;;7.43;4.37;;;5.00;99.90;;;;;;5056448;28;20687;-56
2022/12/07 01:01:09;;;;;;;7.70;5.00;;;4.80;99.90;;;;;;5059466;28;20200;-56
2022/12/07 01:03:37;;;;;;;10.27;5.53;;;4.70;99.90;;;;;;5061322;28;20249;-56
2022/12/07 01:06:05;;;;;;;7.97;5.60;;;4.50;99.90;;;;;;5073633;28;20211;-56
2022/12/07 01:08:33;;;;;;;9.43;4.97;;;4.70;99.90;;;;;;5058901;28;20218;-56
2022/12/07 01:11:06;;;;;;;11.30;5.17;;;5.00;99.90;;;;;;5060258;28;20279;-56
2022/12/07 01:13:34;;;;;;;5.27;4.40;;;4.90;99.90;;;;;;5060864;28;20223;-56
2022/12/07 01:16:04;;;;;;;6.13;4.60;;;5.10;99.90;;;;;;5058414;28;20203;-55
2022/12/07 01:18:32;;;;;;;9.37;3.80;;;5.00;99.90;;;;;;5060410;28;20241;-56
2022/12/07 01:21:08;;;;;;;7.97;4.07;;;5.10;99.90;;;;;;5059325;28;20552;-56
2022/12/07 01:23:36;;;;;;;7.27;3.93;;;5.20;99.90;;;;;;5060137;28;20235;-56
2022/12/07 01:26:06;;;;;;;7.90;4.23;;;5.20;99.90;;;;;;5058699;28;20266;-56
2022/12/07 01:28:34;;;;;;;6.23;3.73;;;5.50;99.90;;;;;;5059957;28;20246;-55
2022/12/07 01:31:03;;;;;;;5.53;3.07;;;5.50;99.90;;;;;;5045545;28;20238;-56
2022/12/07 01:33:33;;;;;;;7.30;2.90;;;5.40;99.90;;;;;;5039471;28;20581;-58
2022/12/07 01:36:15;;;;;;;8.23;3.17;;;5.50;99.90;;;;;;5039272;28;20284;-56
2022/12/07 01:38:42;;;;;;;3.93;2.57;;;5.60;99.90;;;;;;5039459;28;20668;-56
2022/12/07 01:41:09;;;;;;;5.57;2.90;;;5.60;99.90;;;;;;5040823;28;20210;-56
2022/12/07 01:43:36;;;;;;;4.20;3.03;;;5.70;99.90;;;;;;5036759;28;20201;-57
2022/12/07 01:46:04;;;;;;;6.80;2.63;;;5.60;99.90;;;;;;5039205;28;20210;-56
2022/12/07 01:48:34;;;;;;;5.67;2.73;;;5.60;99.90;;;;;;5036013;28;20736;-56
2022/12/07 01:51:08;;;;;;;4.90;2.90;;;5.70;99.90;;;;;;5036924;28;20197;-55
2022/12/07 01:53:38;;;;;;;4.73;2.87;;;5.60;99.90;;;;;;5037492;28;20310;-56
2022/12/07 01:56:06;;;;;;;3.77;3.03;;;5.50;99.90;;;;;;5038976;28;20229;-57
2022/12/07 01:58:33;;;;;;;3.63;2.80;;;5.50;99.90;;;;;;5037470;28;20208;-57
2022/12/07 02:01:00;;;;;;;4.70;2.80;;;5.40;99.90;;;;;;5034404;28;20238;-57
2022/12/07 02:03:38;;;;;;;4.80;2.97;;;5.30;1.00;;;;;;5033007;28;20261;-57
2022/12/07 02:06:07;;;;;;;7.43;3.17;;;5.20;1.00;;;;;;5037135;28;20205;-56
2022/12/07 02:08:34;;;;;;;6.60;3.90;;;5.10;99.90;;;;;;5037587;28;20682;-59
2022/12/07 02:11:04;;;;;;;4.90;3.57;;;5.10;1.00;;;;;;5037715;28;20237;-56
2022/12/07 02:13:34;;;;;;;9.67;3.53;;;5.10;99.90;;;;;;5040000;28;20219;-56
2022/12/07 02:16:10;;;;;;;5.40;3.87;;;5.00;1.00;;;;;;5038299;28;20744;-56
2022/12/07 02:19:07;;;;;;;4.07;3.10;;;5.10;99.90;;;;;;5034473;28;20894;-58
2022/12/07 02:21:49;;;;;;;4.63;3.47;;;5.00;1.00;;;;;;5034673;28;20209;-57
2022/12/07 02:25:06;;;;;;;7.30;3.60;;;5.00;1.00;;;;;;5037441;28;20201;-62
2022/12/07 02:27:47;;;;;;;5.20;3.53;;;5.00;99.90;;;;;;5028560;28;20216;-64
2022/12/07 02:30:19;;;;;;;7.20;3.67;;;4.80;1.00;;;;;;5034057;28;20271;-56
2022/12/07 02:33:10;;;;;;;8.43;3.80;;;5.00;1.00;;;;;;5039022;28;20219;-57
2022/12/07 02:35:45;;;;;;;6.43;3.40;;;5.00;1.00;;;;;;5037147;28;20206;-59
2022/12/07 02:38:18;;;;;;;5.93;3.73;;;5.00;99.90;;;;;;5054470;28;20292;-56
2022/12/07 02:40:56;;;;;;;5.93;3.10;;;4.70;1.00;;;;;;5038598;28;20353;-55
2022/12/07 02:43:30;;;;;;;6.90;3.70;;;4.70;1.00;;;;;;5038340;28;20202;-56
2022/12/07 02:46:22;;;;;;;8.10;3.77;;;4.60;1.00;;;;;;5039436;28;20209;-55
2022/12/07 02:48:50;;;;;;;5.30;3.50;;;4.70;1.00;;;;;;5037524;28;20606;-57
2022/12/07 02:51:18;;;;;;;5.07;3.30;;;4.60;99.90;;;;;;5037848;28;20298;-56
2022/12/07 02:53:45;;;;;;;5.73;3.20;;;4.80;99.90;;;;;;5036160;28;20216;-55
2022/12/07 02:56:44;;;;;;;6.03;3.87;;;4.90;1.00;;;;;;5032973;28;20197;-56
2022/12/07 02:59:35;;;;;;;7.10;3.00;;;4.90;1.00;;;;;;5035012;28;20618;-55
2022/12/07 03:02:11;;;;;;;5.83;3.10;;;4.80;1.00;;;;;;5037504;28;20197;-56
2022/12/07 03:05:02;;;;;;;6.07;2.97;;;4.90;1.00;;;;;;5038165;28;20204;-55
2022/12/07 03:07:34;;;;;;;5.07;3.23;;;5.00;1.00;;;;;;5036668;28;20212;-55
2022/12/07 03:10:37;;;;;;;5.37;2.37;;;5.00;99.90;;;;;;5038336;28;20307;-55
2022/12/07 03:13:11;;;;;;;4.27;2.40;;;5.10;75.80;;;;;;5030050;28;20600;-58
2022/12/07 03:15:53;;;;;;;6.17;2.23;;;5.20;1.00;;;;;;5038247;28;20215;-58
2022/12/07 03:18:23;;;;;;;7.03;2.00;;;5.20;1.00;;;;;;5037084;28;20226;-57
2022/12/07 03:20:54;;;;;;;5.57;2.40;;;5.40;92.90;;;;;;5036430;28;20233;-58
2022/12/07 03:23:24;;;;;;;5.37;1.80;;;5.40;1.00;;;;;;5036294;28;20220;-57
2022/12/07 03:25:58;;;;;;;4.13;1.30;;;5.40;1.00;;;;;;5038790;28;20208;-56
2022/12/07 03:28:34;;;;;;;5.50;1.80;;;5.50;1.00;;;;;;5038262;28;20211;-55
2022/12/07 03:31:23;;;;;;;3.23;1.87;;;5.50;1.00;;;;;;5037311;28;20335;-58
2022/12/07 03:34:10;;;;;;;4.13;1.63;;;5.50;1.00;;;;;;5039233;28;20218;-56
2022/12/07 03:36:50;;;;;;;3.73;1.53;;;5.50;1.00;;;;;;5037451;28;20700;-56
2022/12/07 03:39:24;;;;;;;4.13;1.53;;;5.50;1.00;;;;;;5039723;28;20288;-57
2022/12/07 03:41:52;;;;;;;3.60;1.17;;;5.60;1.00;;;;;;5053208;28;20287;-57
2022/12/07 03:44:19;;;;;;;3.37;1.90;;;5.50;1.00;;;;;;5042344;28;20300;-55
2022/12/07 03:47:01;;;;;;;2.50;1.47;;;5.50;1.00;;;;;;5041864;28;20305;-56
2022/12/07 03:49:32;;;;;;;2.60;1.50;;;5.30;54.70;;;;;;5041504;28;20208;-55
2022/12/07 03:52:20;;;;;;;3.73;1.50;;;5.10;1.00;;;;;;5040210;28;20282;-57
2022/12/07 03:54:59;;;;;;;3.90;1.50;;;4.90;1.00;;;;;;5041457;28;20220;-56
2022/12/07 03:57:29;;;;;;;3.23;1.80;;;4.80;99.90;;;;;;5039748;28;20303;-55
2022/12/07 03:59:57;;;;;;;3.87;1.93;;;4.80;1.00;;;;;;5025273;28;20577;-55
2022/12/07 04:02:26;;;;;;;7.00;2.30;;;4.70;1.00;;;;;;5037086;28;20196;-56
2022/12/07 04:04:53;;;;;;;3.83;1.70;;;4.80;1.00;;;;;;5039314;28;20904;-56
2022/12/07 04:07:20;;;;;;;4.07;1.90;;;4.90;99.90;;;;;;5041532;28;20291;-56
2022/12/07 04:09:47;;;;;;;3.57;1.67;;;4.90;1.00;;;;;;5023629;28;20227;-56
2022/12/07 04:12:14;;;;;;;5.43;1.83;;;5.00;1.00;;;;;;5041446;28;20342;-56
2022/12/07 04:14:41;;;;;;;3.77;1.87;;;5.00;1.00;;;;;;5040706;28;20313;-56
2022/12/07 04:17:08;;;;;;;3.13;1.33;;;5.10;1.00;;;;;;5038557;28;20294;-57
2022/12/07 04:19:35;;;;;;;4.33;1.40;;;5.10;1.00;;;;;;5041144;28;20212;-56
2022/12/07 04:22:05;;;;;;;6.27;1.43;;;5.30;1.00;;;;;;5041402;28;20211;-56
2022/12/07 04:24:33;;;;;;;3.13;1.47;;;5.40;99.90;;;;;;5042125;28;20215;-56
2022/12/07 04:27:00;;;;;;;3.70;1.33;;;5.40;99.90;;;;;;5040204;28;20200;-56
2022/12/07 04:29:27;;;;;;;4.60;1.70;;;5.10;99.90;;;;;;5040122;28;20271;-60
2022/12/07 04:31:54;;;;;;;5.97;1.87;;;5.30;1.00;;;;;;5039467;28;20322;-57
2022/12/07 04:34:21;;;;;;;7.93;2.20;;;5.30;1.00;;;;;;5037517;28;20229;-56
2022/12/07 04:36:48;;;;;;;4.63;1.70;;;5.30;1.00;;;;;;5039103;28;20285;-56
2022/12/07 04:39:30;;;;;;;3.40;1.40;;;5.30;1.00;;;;;;5043728;28;20198;-56
2022/12/07 04:41:57;;;;;;;5.00;1.37;;;5.30;1.00;;;;;;5042268;28;20573;-56
2022/12/07 04:44:25;;;;;;;1.50;1.10;;;5.30;1.00;;;;;;5041767;28;20732;-56
2022/12/07 04:46:53;;;;;;;2.27;1.20;;;5.30;99.90;;;;;;5041381;28;20204;-56
2022/12/07 04:49:20;;;;;;;4.90;1.30;;;5.20;2.50;;;;;;5041230;28;20209;-57
2022/12/07 04:51:47;;;;;;;2.43;1.40;;;5.30;1.00;;;;;;5039730;28;20216;-57
2022/12/07 04:54:15;;;;;;;4.40;1.23;;;5.20;1.00;;;;;;5040661;28;20553;-56
2022/12/07 04:56:42;;;;;;;2.43;1.00;;;5.10;99.90;;;;;;5040408;28;20211;-56
2022/12/07 04:59:14;;;;;;;2.40;1.10;;;5.00;55.40;;;;;;5040761;28;20719;-56
2022/12/07 05:01:41;;;;;;;7.73;1.60;;;4.80;99.90;;;;;;5038108;28;20208;-56
2022/12/07 05:04:08;;;;;;;5.97;1.53;;;4.90;1.00;;;;;;5036581;28;20250;-56
2022/12/07 05:06:35;;;;;;;4.43;1.60;;;5.00;99.90;;;;;;5038551;28;20293;-56
2022/12/07 05:09:03;;;;;;;4.40;1.67;;;5.10;99.90;;;;;;5041379;28;20225;-56
2022/12/07 05:11:39;;;;;;;8.87;1.70;;;5.00;1.00;;;;;;5039691;28;20696;-57
2022/12/07 05:14:11;;;;;;;2.53;1.40;;;5.10;1.00;;;;;;5040492;28;20242;-57
2022/12/07 05:16:39;;;;;;;2.70;1.50;;;5.10;99.90;;;;;;5040372;28;20231;-62
2022/12/07 05:19:06;;;;;;;2.87;1.47;;;5.20;99.90;;;;;;5041314;28;20567;-56
2022/12/07 05:21:33;;;;;;;1.80;1.30;;;5.10;1.00;;;;;;5039495;28;20205;-57
2022/12/07 05:24:00;;;;;;;4.20;1.70;;;5.20;99.90;;;;;;5040438;28;20220;-56
2022/12/07 05:26:27;;;;;;;2.90;1.90;;;5.20;1.00;;;;;;5039555;28;20204;-56
2022/12/07 05:28:55;;;;;;;7.10;1.80;;;5.10;1.00;;;;;;5040308;28;20687;-56
2022/12/07 05:31:23;;;;;;;3.87;2.17;;;5.00;1.00;;;;;;5038330;28;20243;-58
2022/12/07 05:33:51;;;;;;;4.17;2.13;;;5.00;1.00;;;;;;5040420;28;20216;-56
2022/12/07 05:36:17;;;;;;;7.53;2.47;;;4.90;1.00;;;;;;5037431;28;20204;-55
2022/12/07 05:38:44;;;;;;;4.57;1.90;;;4.70;1.00;;;;;;5037952;28;20562;-56
2022/12/07 05:44:01;;;;;;;1.87;1.53;;;4.70;1.00;;;;;;5038793;28;20205;-56
2022/12/07 05:46:27;;;;;;;4.70;2.53;;;4.70;1.00;;;;;;5038343;28;20207;-56
2022/12/07 05:48:54;;;;;;;6.23;2.77;;;4.70;1.00;;;;;;5037785;28;20886;-56
2022/12/07 05:51:21;;;;;;;3.10;2.30;;;4.60;1.00;;;;;;5035196;28;20232;-56
2022/12/07 05:53:48;;;;;;;6.53;2.17;;;4.80;1.00;;;;;;5040502;28;20227;-57
2022/12/07 05:56:15;;;;;;;3.90;2.30;;;4.80;1.00;;;;;;5039104;28;20205;-57
2022/12/07 06:01:27;;;;;;;5.03;2.40;;;4.70;99.90;;;;;;5037173;28;20206;-57
2022/12/07 06:03:54;;;;;;;7.63;2.67;;;4.60;1.00;;;;;;5038766;28;20290;-56
2022/12/07 06:06:21;;;;;;;5.43;2.87;;;4.60;1.00;;;;;;5036894;28;20327;-56
2022/12/07 06:08:48;;;;;;;6.33;3.00;;;4.60;1.00;;;;;;5037432;28;20198;-56
2022/12/07 06:14:00;;;;;;;6.87;2.80;;;4.70;1.00;;;;;;5037818;28;20231;-56
2022/12/07 06:16:27;;;;;;;4.07;2.70;;;4.70;1.00;;;;;;5040643;28;20224;-56
2022/12/07 06:18:54;;;;;;;6.33;2.47;;;4.60;1.00;;;;;;5036392;28;20303;-56
2022/12/07 06:21:20;;;;;;;8.50;3.03;;;4.50;99.90;;;;;;5052731;28;20205;-56
2022/12/07 06:23:47;;;;;;;5.37;3.03;;;4.50;1.00;;;;;;5040342;28;20207;-58
2022/12/07 06:26:14;;;;;;;3.60;2.80;;;4.60;1.00;;;;;;5037697;28;20291;-56
2022/12/07 06:28:41;;;;;;;4.73;3.00;;;4.50;1.00;;;;;;5039863;28;20212;-56
2022/12/07 06:31:08;;;;;;;5.67;3.07;;;4.50;1.00;;;;;;5038576;28;20730;-56
2022/12/07 06:33:40;;;;;;;5.97;3.60;;;4.50;1.00;;;;;;5039061;28;20701;-56
2022/12/07 06:36:07;;;;;;;4.33;3.10;;;4.40;1.00;;;;;;5038259;28;20232;-56
2022/12/07 06:38:34;;;;;;;4.87;3.23;;;4.50;1.00;;;;;;5032430;28;20291;-56
2022/12/07 06:41:00;;;;;;;5.37;3.50;;;4.60;1.00;;;;;;5034797;28;20291;-56
2022/12/07 06:43:27;;;;;;;5.13;3.70;;;4.70;1.00;;;;;;5028220;28;20201;-56
2022/12/07 06:45:54;;;;;;;4.30;3.77;;;4.60;99.90;;;;;;5030184;28;20236;-57
2022/12/07 06:48:21;;;;;;;3.87;3.23;;;4.70;1.00;;;;;;5036992;28;20213;-56
2022/12/07 06:50:48;;;;;;;4.30;3.50;;;4.60;1.00;;;;;;5030978;28;21678;-57
2022/12/07 06:53:21;;;;;;;4.37;3.30;;;4.50;6.30;;;;;;5030599;28;20213;-56
2022/12/07 06:55:48;;;;;;;7.03;4.20;;;4.40;7.00;;;;;;5028906;28;20248;-56
2022/12/07 06:58:15;;;;;;;5.13;3.83;;;4.30;1.00;;;;;;5028547;28;20200;-56
2022/12/07 07:00:42;;;;;;;8.07;4.10;;;4.40;1.00;;;;;;5021717;28;20213;-56
2022/12/07 07:03:09;;;;;;;7.47;3.90;;;4.40;1.00;;;;;;5026696;28;20214;-59
2022/12/07 07:05:36;;;;;;;8.30;4.10;;;4.60;1.00;;;;;;5027904;28;21731;-56
2022/12/07 07:08:03;;;;;;;4.93;4.20;;;4.70;99.90;;;;;;4662567;28;9999896;-56
2022/12/07 07:10:48;;;;;;;4.20;3.80;;;4.70;1.00;;;;;;5024635;28;20220;-56
2022/12/07 07:13:15;;;;;;;7.50;4.03;;;4.60;1.00;;;;;;5027213;28;20295;-56
2022/12/07 07:15:42;;;;;;;7.80;3.83;;;4.70;1.00;;;;;;5031922;28;20260;-56
2022/12/07 07:18:09;;;;;;;11.73;4.23;;;4.50;1.00;;;;;;5032954;28;20204;-56
2022/12/07 07:20:36;;;;;;;6.93;3.87;;;4.70;1.00;;;;;;5026974;28;20304;-56
2022/12/07 07:23:03;;;;;;;5.60;3.70;;;4.60;1.00;;;;;;5027448;28;21977;-56
2022/12/07 07:25:30;;;;;;;4.33;3.90;;;4.50;99.90;;;;;;5040022;28;20298;-56
2022/12/07 07:27:57;;;;;;;12.10;4.20;;;4.40;1.00;;;;;;5042403;28;20802;-56
2022/12/07 07:30:25;;;;;;;7.90;4.53;;;4.50;1.00;;;;;;5039691;28;20240;-56
2022/12/07 07:32:59;;;;;;;8.27;4.53;;;4.50;99.90;;;;;;5034732;28;20204;-56
2022/12/07 07:35:27;;;;;;;7.70;3.87;;;4.60;1.00;;;;;;5037925;28;20208;-55
2022/12/07 07:37:55;;;;;;;5.70;4.60;;;4.80;78.40;;;;;;5033707;28;20208;-60
2022/12/07 07:40:22;;;;;;;11.33;4.83;;;4.80;1.00;;;;;;5037738;28;20339;-56
2022/12/07 07:42:53;;;;;;;5.73;3.70;;;4.70;1.00;;;;;;5033942;28;20293;-56
2022/12/07 07:45:22;;;;;;;7.13;4.33;;;4.60;99.90;;;;;;5038331;28;20220;-55
2022/12/07 07:47:49;;;;;;;4.93;4.20;;;4.70;1.00;;;;;;5034763;28;20295;-56
2022/12/07 07:50:17;;;;;;;8.07;4.67;;;4.80;1.00;;;;;;5027316;28;20235;-56
2022/12/07 07:52:44;;;;;;;6.83;4.50;;;4.80;1.00;;;;;;5037181;28;20227;-56
2022/12/07 07:55:11;;;;;;;6.03;4.33;;;4.70;1.00;;;;;;5034107;28;20221;-56
2022/12/07 07:57:39;;;;;;;6.90;4.47;;;4.90;1.00;;;;;;5036652;28;20206;-56
2022/12/07 08:00:10;;;;;;;9.57;4.17;;;4.80;1.00;;;;;;5036826;28;20210;-57
2022/12/07 08:02:37;;;;;;;5.07;3.97;;;4.80;1.00;;;;;;5036096;28;20190;-57
2022/12/07 08:05:04;;;;;;;8.00;4.17;;;4.80;1.00;;;;;;5035187;28;20196;-56
2022/12/07 08:07:31;;;;;;;10.90;4.50;;;5.00;1.00;;;;;;5034709;28;20220;-56
2022/12/07 08:09:57;;;;;;;7.67;3.80;;;5.00;99.90;;;;;;5033460;28;20668;-56
2022/12/07 08:12:24;;;;;;;6.00;3.77;;;4.90;99.90;;;;;;5020389;28;20238;-56
2022/12/07 08:14:51;;;;;;;7.70;3.87;;;4.80;1.00;;;;;;5038472;28;20221;-56
2022/12/07 08:17:18;;;;;;;6.47;4.10;;;4.80;1.00;;;;;;5029220;28;20283;-57
2022/12/07 08:19:45;;;;;;;10.20;4.50;;;5.00;99.90;;;;;;5035373;28;20212;-55
2022/12/07 08:22:11;;;;;;;5.33;3.30;;;5.10;1.00;;;;;;5037320;28;20287;-56
2022/12/07 08:24:38;;;;;;;7.50;3.07;;;5.00;99.90;;;;;;5032480;28;20209;-57
2022/12/07 08:27:05;;;;;;;13.63;3.20;;;5.20;1.00;;;;;;5038624;28;20711;-56
2022/12/07 08:29:32;;;;;;;6.23;3.17;;;5.30;1.00;;;;;;5034879;28;20200;-56
2022/12/07 08:32:00;;;;;;;6.17;3.60;;;5.20;99.90;;;;;;5031819;28;20329;-56
2022/12/07 08:34:35;;;;;;;6.57;3.10;;;5.10;99.90;;;;;;5035585;28;20248;-56
2022/12/07 08:37:02;;;;;;;5.97;3.00;;;5.00;99.90;;;;;;5034465;28;20202;-56
2022/12/07 08:39:29;;;;;;;6.70;3.00;;;4.80;1.00;;;;;;5031730;28;20206;-56
2022/12/07 08:41:57;;;;;;;6.17;3.13;;;4.70;1.00;;;;;;5032210;28;20692;-56
2022/12/07 08:44:24;;;;;;;6.87;3.43;;;4.60;1.00;;;;;;5034107;28;20201;-56
2022/12/07 08:47:01;;;;;;;6.33;3.30;;;4.70;99.90;;;;;;5034558;28;20206;-57
2022/12/07 08:49:43;;;;;;;5.27;3.20;;;5.00;1.00;;;;;;5018473;28;20216;-56
2022/12/07 08:52:10;;;;;;;6.33;3.33;;;5.20;1.00;;;;;;5031999;28;20204;-55
2022/12/07 08:54:39;;;;;;;6.23;3.43;;;5.30;99.90;;;;;;5028185;28;20597;-57
2022/12/07 08:57:07;;;;;;;6.60;3.40;;;5.40;1.00;;;;;;5033647;28;20742;-56
2022/12/07 08:59:35;;;;;;;4.73;2.60;;;5.40;1.00;;;;;;5030636;28;20204;-57
2022/12/07 09:02:02;;;;;;;3.53;2.77;;;5.60;1.00;;;;;;5034379;28;20219;-56
2022/12/07 09:04:29;;;;;;;5.20;2.73;;;5.50;1.00;;;;;;5034659;28;20211;-56
2022/12/07 09:06:56;;;;;;;5.87;2.37;;;5.30;1.00;;;;;;5021169;28;20199;-61
2022/12/07 09:09:23;;;;;;;6.97;2.90;;;5.30;1.00;;;;;;5029347;28;20217;-56
2022/12/07 09:11:50;;;;;;;4.63;2.93;;;5.20;1.00;;;;;;5047955;28;20308;-56
2022/12/07 09:14:17;;;;;;;6.27;2.87;;;5.20;99.90;;;;;;5035460;28;20288;-56
2022/12/07 09:16:43;;;;;;;4.13;2.40;;;5.10;99.90;;;;;;5038005;28;20542;-56
2022/12/07 09:19:10;;;;;;;2.87;2.40;;;5.30;99.90;;;;;;5031054;28;20222;-56
2022/12/07 09:21:37;;;;;;;4.97;2.63;;;5.50;20.80;;;;;;5031156;28;20233;-56
2022/12/07 09:24:04;;;;;;;4.63;2.47;;;5.60;1.00;;;;;;5031358;28;20647;-57
2022/12/07 09:26:31;;;;;;;9.07;2.50;;;5.90;1.00;;;;;;5033533;28;20231;-57
2022/12/07 09:28:58;;;;;;;5.23;2.33;;;5.90;99.90;;;;;;5031660;28;20204;-56
2022/12/07 09:31:26;;;;;;;6.23;3.17;;;6.00;99.90;;;;;;5035616;28;20242;-56
2022/12/07 09:34:00;;;;;;;7.03;2.50;;;6.10;1.00;;;;;;5032781;28;20212;-57
2022/12/07 09:36:28;;;;;;;7.67;2.40;;;6.20;92.40;;;;;;5030546;28;20220;-56
2022/12/07 09:38:55;;;;;;;5.00;2.73;;;6.00;1.00;;;;;;5033244;28;20710;-56
2022/12/07 09:41:24;;;;;;;3.37;2.40;;;6.20;99.90;;;;;;5032775;28;20233;-56
2022/12/07 09:43:52;;;;;;;2.33;2.10;;;6.50;1.00;;;;;;5039596;28;20203;-57
2022/12/07 09:46:20;;;;;;;6.97;2.47;;;6.50;99.90;;;;;;5033769;28;20350;-56
2022/12/07 09:48:49;;;;;;;3.37;2.10;;;6.30;99.90;;;;;;5033999;28;20248;-56
2022/12/07 09:51:21;;;;;;;6.93;2.57;;;6.40;1.00;;;;;;5030727;28;20860;-57
2022/12/07 09:53:53;;;;;;;6.17;2.00;;;6.70;99.90;;;;;;5038640;28;20305;-57
2022/12/07 09:56:20;;;;;;;5.60;2.30;;;7.10;99.90;;;;;;5033381;28;20216;-56
2022/12/07 09:58:48;;;;;;;8.00;2.03;;;7.30;1.00;;;;;;5034402;28;20287;-56
2022/12/07 10:01:17;;;;;;;9.90;2.57;;;7.20;1.00;;;;;;5033981;28;20241;-56
2022/12/07 10:04:13;;;;;;;6.60;2.20;;;7.10;1.00;;;;;;5033314;28;20202;-56
2022/12/07 10:06:41;;;;;;;3.17;1.97;;;6.90;1.00;;;;;;5026772;28;20259;-57
2022/12/07 10:09:12;;;;;;;3.70;2.00;;;6.90;1.00;;;;;;5032033;28;20237;-56
2022/12/07 10:12:18;;;;;;;2.57;1.90;;;6.80;1.00;;;;;;5037194;28;20216;-57
2022/12/07 10:15:00;;;;;;;5.60;1.80;;;7.00;99.90;;;;;;4993250;28;20236;-56
2022/12/07 10:17:41;;;;;;;5.63;2.10;;;7.10;1.00;;;;;;4993503;28;20202;-57
2022/12/07 10:20:19;;;;;;;5.03;2.00;;;7.00;1.00;;;;;;4995932;28;20358;-57
2022/12/07 10:23:01;;;;;;;5.43;2.03;;;6.90;1.00;;;;;;4994798;28;20193;-57
2022/12/07 10:25:34;;;;;;;5.33;2.07;;;6.80;1.00;;;;;;4992015;28;20295;-56
2022/12/07 10:28:12;;;;;;;5.13;3.10;;;6.80;99.90;;;;;;4993697;28;20212;-56
2022/12/07 10:30:48;;;;;;;4.43;1.90;;;6.70;99.90;;;;;;4998517;28;20286;-56
2022/12/07 10:33:29;;;;;;;5.33;2.00;;;6.70;1.00;;;;;;5013889;28;20647;-56
2022/12/07 10:35:56;;;;;;;5.57;2.13;;;6.70;1.00;;;;;;5014034;28;20228;-56
2022/12/07 10:38:26;;;;;;;3.50;2.30;;;6.90;1.00;;;;;;5009560;28;20230;-57
2022/12/07 10:41:06;;;;;;;6.50;1.97;;;7.00;1.00;;;;;;5011423;28;20208;-56
2022/12/07 10:43:34;;;;;;;5.70;2.07;;;7.30;99.90;;;;;;5014176;28;20658;-56
2022/12/07 10:46:51;;;;;;;2.87;1.67;;;7.20;1.00;;;;;;5039426;28;20200;-57
2022/12/07 10:49:27;;;;;;;4.17;2.00;;;7.40;1.00;;;;;;5023633;28;20221;-56
2022/12/07 10:52:29;;;;;;;2.87;1.67;;;7.80;3.40;;;;;;5053022;28;20209;-55
2022/12/07 10:55:23;;;;;;;5.97;1.97;;;8.10;1.00;;;;;;5052072;28;20224;-56
2022/12/07 10:58:08;;;;;;;2.10;1.47;;;8.10;99.90;;;;;;5054264;28;20205;-56
2022/12/07 11:01:12;;;;;;;7.23;2.10;;;8.00;1.00;;;;;;5050951;28;20208;-56
2022/12/07 11:03:39;;;;;;;3.50;1.73;;;8.20;1.00;;;;;;5051133;28;20226;-56
2022/12/07 11:06:15;;;;;;;4.23;1.80;;;8.20;1.00;;;;;;5048027;28;20207;-56
2022/12/07 11:09:04;;;;;;;9.00;2.13;;;8.10;1.00;;;;;;5049098;28;20286;-56
2022/12/07 11:11:41;;;;;;;4.60;1.70;;;7.90;1.00;;;;;;5050546;28;20667;-57
2022/12/07 11:14:45;;;;;;;3.83;1.60;;;7.70;1.00;;;;;;5054799;28;20297;-56
2022/12/07 11:17:42;;;;;;;3.83;1.83;;;7.60;1.00;;;;;;5048795;28;20644;-56
2022/12/07 11:20:29;;;;;;;3.43;1.67;;;7.60;99.90;;;;;;5038501;28;20215;-56
2022/12/07 11:23:10;;;;;;;3.03;1.70;;;7.30;1.00;;;;;;5044587;28;20673;-56
2022/12/07 11:25:54;;;;;;;4.30;2.43;;;7.40;1.00;;;;;;5050467;28;20618;-56
2022/12/07 11:28:49;;;;;;;4.30;1.90;;;7.40;1.00;;;;;;5051834;28;20207;-57
2022/12/07 11:31:26;;;;;;;5.77;1.80;;;7.40;1.00;;;;;;5042129;28;20241;-56
2022/12/07 11:34:04;;;;;;;4.57;1.70;;;7.40;1.00;;;;;;5027811;28;20283;-57
2022/12/07 11:36:51;;;;;;;7.63;2.30;;;7.30;1.00;;;;;;5029018;28;20296;-57
2022/12/07 11:39:21;;;;;;;4.27;1.97;;;7.40;1.00;;;;;;5028480;28;20552;-57
2022/12/07 11:41:56;;;;;;;7.47;2.20;;;7.30;1.00;;;;;;5032681;28;20204;-57
2022/12/07 11:44:36;;;;;;;4.77;2.47;;;7.50;99.90;;;;;;5034342;28;20210;-57
2022/12/07 11:47:16;;;;;;;7.33;2.00;;;7.90;1.00;;;;;;5032269;28;20239;-57
2022/12/07 11:49:47;;;;;;;7.70;2.53;;;8.10;1.00;;;;;;5022296;28;20204;-57
2022/12/07 11:52:30;;;;;;;5.30;2.20;;;8.10;99.90;;;;;;5027653;28;20214;-57
2022/12/07 11:54:59;;;;;;;4.47;2.33;;;7.90;99.90;;;;;;5031216;28;20210;-57
2022/12/07 11:57:35;;;;;;;6.37;2.00;;;7.80;99.90;;;;;;5027443;28;20206;-56
2022/12/07 12:00:07;;;;;;;4.50;2.47;;;7.70;1.00;;;;;;5032021;28;20295;-56
2022/12/07 12:02:42;;;;;;;5.50;1.93;;;8.00;1.00;;;;;;5034312;28;20231;-57
2022/12/07 12:05:17;;;;;;;4.53;1.80;;;8.00;99.90;;;;;;5036847;28;20215;-57
2022/12/07 12:07:49;;;;;;;6.17;2.03;;;8.00;99.90;;;;;;5035145;28;20203;-57
2022/12/07 12:10:47;;;;;;;6.60;2.00;;;7.90;99.90;;;;;;5030124;28;20739;-57
2022/12/07 12:13:27;;;;;;;5.73;2.10;;;7.80;1.00;;;;;;5019882;28;20249;-57
2022/12/07 12:16:31;;;;;;;6.17;2.00;;;7.50;1.00;;;;;;5030476;28;20232;-59
2022/12/07 12:19:21;;;;;;;7.70;2.20;;;7.80;1.00;;;;;;5027951;28;20208;-57
2022/12/07 12:21:53;;;;;;;2.90;1.47;;;7.80;1.00;;;;;;5034515;28;20652;-57
2022/12/07 12:24:28;;;;;;;3.57;1.63;;;8.10;1.00;;;;;;5028715;28;20209;-57
2022/12/07 12:27:04;;;;;;;2.43;1.40;;;8.30;99.90;;;;;;5034013;28;20205;-56
2022/12/07 12:29:35;;;;;;;2.30;1.40;;;8.40;26.90;;;;;;5020924;28;20254;-58
2022/12/07 12:32:28;;;;;;;2.50;1.10;;;8.40;1.00;;;;;;5032123;28;20277;-61
2022/12/07 12:35:02;;;;;;;3.63;0.90;;;8.30;1.00;;;;;;5033418;28;20649;-57
2022/12/07 12:37:42;;;;;;;4.97;1.33;;;8.20;1.00;;;;;;5034055;28;20199;-57
2022/12/07 12:40:15;;;;;;;3.13;1.00;;;8.50;1.00;;;;;;5034130;28;20214;-57
2022/12/07 12:42:55;;;;;;;5.73;1.20;;;9.10;1.00;;;;;;5037175;28;20231;-57
2022/12/07 12:45:32;;;;;;;2.40;0.93;;;8.90;99.90;;;;;;5037066;28;20220;-57
2022/12/07 12:48:00;;;;;;;2.00;0.80;;;9.10;2.40;;;;;;5033531;28;20212;-58
2022/12/07 12:50:35;;;;;;;8.10;1.03;;;9.20;34.70;;;;;;5033189;28;20244;-57
2022/12/07 12:53:13;;;;;;;4.10;1.00;;;9.60;1.00;;;;;;5034752;28;20394;-56
2022/12/07 12:55:43;;;;;;;3.80;1.33;;;9.70;1.00;;;;;;5049386;28;20251;-57
2022/12/07 12:58:18;;;;;;;4.30;1.07;;;9.50;1.00;;;;;;5032777;28;20192;-57
2022/12/07 13:01:26;;;;;;;5.90;1.40;;;9.50;1.00;;;;;;5036972;28;20286;-57
2022/12/07 13:03:55;;;;;;;2.13;1.07;;;9.50;1.00;;;;;;5037462;28;20207;-55
2022/12/07 13:06:24;;;;;;;4.27;1.10;;;8.80;99.90;;;;;;5035031;28;20210;-55
2022/12/07 13:08:57;;;;;;;1.63;1.00;;;8.40;99.90;;;;;;5036485;28;20638;-56
2022/12/07 13:11:41;;;;;;;3.97;1.27;;;8.30;1.00;;;;;;5033973;28;20228;-57
2022/12/07 13:14:46;;;;;;;3.83;1.23;;;8.20;1.00;;;;;;5037443;28;20196;-56
2022/12/07 13:17:31;;;;;;;4.67;0.90;;;8.20;1.00;;;;;;5040153;28;20309;-58
2022/12/07 13:20:04;;;;;;;4.10;1.03;;;8.30;1.00;;;;;;5026159;28;20206;-57
2022/12/07 13:22:31;;;;;;;4.20;1.03;;;8.20;99.90;;;;;;5034624;28;20279;-57
2022/12/07 13:25:07;;;;;;;4.37;1.10;;;8.10;1.00;;;;;;5033474;28;21947;-57
2022/12/07 13:27:38;;;;;;;3.70;0.97;;;8.20;1.00;;;;;;5030597;28;20207;-57
2022/12/07 13:30:21;;;;;;;1.70;0.80;;;8.60;1.00;;;;;;5035370;28;20197;-57
2022/12/07 13:32:54;;;;;;;1.70;0.87;;;8.60;1.00;;;;;;5033325;28;20238;-57
2022/12/07 13:35:33;;;;;;;9.77;1.20;;;8.80;99.90;;;;;;5031020;28;20690;-56
2022/12/07 13:38:03;;;;;;;4.50;1.17;;;8.60;99.90;;;;;;5027628;28;20264;-56
2022/12/07 13:40:30;;;;;;;3.93;1.00;;;8.30;99.90;;;;;;5027660;28;20765;-56